createdAt,value
2023-03-06T00:00:35.067Z,89.51
2023-03-06T00:03:02.185Z,89.54
2023-03-06T00:05:29.915Z,89.57
2023-03-06T00:07:57.309Z,89.42
2023-03-06T00:10:27.159Z,89.62
2023-03-06T00:12:59.718Z,89.18
2023-03-06T00:15:27.690Z,89.27
2023-03-06T00:17:55.320Z,89.24
2023-03-06T00:20:23.323Z,89.07
2023-03-06T00:22:51.064Z,89.22
2023-03-06T00:25:21.706Z,89.26
2023-03-06T00:27:49.948Z,88.97
2023-03-06T00:30:21.746Z,89.20
2023-03-06T00:32:49.552Z,88.92
2023-03-06T00:35:17.085Z,88.95
2023-03-06T00:37:44.635Z,88.78
2023-03-06T00:40:18.295Z,88.93
2023-03-06T00:42:46.263Z,88.99
2023-03-06T00:45:14.185Z,89.02
2023-03-06T00:47:42.207Z,88.97
2023-03-06T00:50:11.109Z,88.75
2023-03-06T00:52:38.337Z,88.89
2023-03-06T00:55:06.546Z,88.90
2023-03-06T00:57:33.589Z,88.88
2023-03-06T01:00:00.444Z,88.89
2023-03-06T01:02:28.030Z,88.83
2023-03-06T01:04:56.060Z,88.94
2023-03-06T01:07:23.465Z,89.02
2023-03-06T01:09:50.593Z,89.25
2023-03-06T01:12:18.023Z,89.43
2023-03-06T01:14:45.676Z,89.48
2023-03-06T01:17:12.818Z,89.42
2023-03-06T01:19:40.079Z,89.34
2023-03-06T01:22:07.009Z,89.33
2023-03-06T01:24:34.051Z,89.03
2023-03-06T01:27:01.101Z,89.24
2023-03-06T01:29:28.416Z,89.43
2023-03-06T01:31:55.543Z,89.48
2023-03-06T01:34:22.652Z,89.32
2023-03-06T01:36:49.859Z,89.21
2023-03-06T01:39:17.307Z,89.38
2023-03-06T01:41:44.393Z,89.15
2023-03-06T01:44:13.997Z,89.10
2023-03-06T01:46:45.466Z,89.32
2023-03-06T01:49:32.158Z,89.29
2023-03-06T01:52:04.023Z,89.35
2023-03-06T01:54:38.913Z,89.37
2023-03-06T01:57:10.043Z,89.48
2023-03-06T01:59:37.448Z,89.39
2023-03-06T02:02:07.363Z,89.47
2023-03-06T02:04:35.700Z,89.52
2023-03-06T02:07:06.689Z,89.36
2023-03-06T02:09:35.344Z,89.53
2023-03-06T02:12:03.867Z,89.62
2023-03-06T02:14:31.229Z,89.66
2023-03-06T02:16:58.378Z,89.65
2023-03-06T02:19:34.023Z,89.66
2023-03-06T02:22:02.112Z,89.80
2023-03-06T02:24:52.329Z,89.74
2023-03-06T02:27:20.270Z,89.78
2023-03-06T02:29:47.310Z,89.90
2023-03-06T02:32:14.309Z,89.93
2023-03-06T02:34:47.897Z,90.14
2023-03-06T02:37:14.665Z,89.89
2023-03-06T02:40:00.905Z,89.82
2023-03-06T02:42:31.788Z,89.67
2023-03-06T02:45:02.417Z,89.59
2023-03-06T02:47:29.477Z,89.68
2023-03-06T02:49:56.342Z,89.65
2023-03-06T02:52:23.300Z,89.65
2023-03-06T02:54:50.662Z,89.53
2023-03-06T02:57:17.626Z,89.33
2023-03-06T02:59:44.445Z,89.33
2023-03-06T03:02:11.483Z,89.63
2023-03-06T03:04:38.494Z,89.91
2023-03-06T03:07:05.676Z,89.87
2023-03-06T03:09:37.700Z,89.83
2023-03-06T03:12:07.148Z,89.67
2023-03-06T03:14:34.289Z,89.86
2023-03-06T03:17:02.464Z,89.84
2023-03-06T03:19:29.607Z,89.75
2023-03-06T03:21:57.221Z,89.68
2023-03-06T03:24:25.673Z,89.39
2023-03-06T03:26:53.203Z,88.81
2023-03-06T03:29:20.562Z,88.92
2023-03-06T03:31:47.611Z,88.98
2023-03-06T03:34:15.077Z,88.55
2023-03-06T03:36:42.421Z,88.21
2023-03-06T03:39:10.696Z,88.08
2023-03-06T03:41:37.651Z,87.71
2023-03-06T03:44:04.695Z,87.58
2023-03-06T03:46:32.151Z,87.42
2023-03-06T03:48:59.489Z,87.56
2023-03-06T03:51:26.735Z,87.86
2023-03-06T03:53:53.776Z,88.24
2023-03-06T03:56:20.871Z,88.34
2023-03-06T03:58:48.273Z,88.75
2023-03-06T04:01:15.261Z,88.98
2023-03-06T04:03:42.362Z,89.22
2023-03-06T04:06:09.610Z,89.30
2023-03-06T04:08:37.044Z,88.88
2023-03-06T04:11:04.429Z,88.99
2023-03-06T04:13:31.738Z,89.28
2023-03-06T04:16:00.051Z,89.03
2023-03-06T04:18:27.399Z,89.16
2023-03-06T04:20:54.699Z,89.41
2023-03-06T04:23:23.182Z,89.23
2023-03-06T04:25:51.342Z,89.14
2023-03-06T04:28:18.415Z,89.21
2023-03-06T04:30:45.338Z,89.18
2023-03-06T04:33:12.743Z,89.24
2023-03-06T04:35:39.840Z,89.80
2023-03-06T04:38:07.141Z,90.02
2023-03-06T04:40:36.653Z,90.16
2023-03-06T04:43:04.709Z,90.11
2023-03-06T04:45:33.337Z,90.24
2023-03-06T04:48:00.643Z,90.48
2023-03-06T04:50:32.804Z,90.17
2023-03-06T04:53:03.914Z,89.98
2023-03-06T04:55:31.450Z,89.89
2023-03-06T04:57:59.376Z,89.80
2023-03-06T05:00:32.618Z,89.69
2023-03-06T05:03:01.269Z,89.50
2023-03-06T05:05:28.712Z,89.31
2023-03-06T05:07:56.297Z,89.23
2023-03-06T05:10:23.833Z,89.02
2023-03-06T05:12:51.064Z,89.35
2023-03-06T05:15:18.523Z,89.24
2023-03-06T05:17:46.786Z,89.38
2023-03-06T05:20:15.908Z,89.18
2023-03-06T05:22:43.927Z,89.22
2023-03-06T05:25:11.200Z,89.35
2023-03-06T05:27:39.274Z,89.30
2023-03-06T05:30:07.936Z,88.95
2023-03-06T05:32:35.895Z,89.04
2023-03-06T05:35:05.188Z,88.74
2023-03-06T05:37:33.106Z,88.72
2023-03-06T05:40:00.875Z,88.56
2023-03-06T05:42:31.115Z,88.51
2023-03-06T05:44:58.154Z,88.41
2023-03-06T05:47:25.164Z,88.27
2023-03-06T05:49:52.206Z,88.63
2023-03-06T05:52:19.258Z,88.36
2023-03-06T05:54:51.607Z,88.47
2023-03-06T05:57:20.917Z,88.58
2023-03-06T05:59:49.502Z,88.40
2023-03-06T06:02:17.884Z,88.37
2023-03-06T06:04:46.016Z,88.32
2023-03-06T06:07:15.529Z,88.23
2023-03-06T06:09:45.778Z,88.07
2023-03-06T06:12:13.878Z,87.76
2023-03-06T06:14:40.986Z,87.57
2023-03-06T06:17:07.940Z,87.45
2023-03-06T06:19:35.322Z,87.48
2023-03-06T06:22:03.985Z,87.34
2023-03-06T06:24:32.238Z,87.19
2023-03-06T06:27:03.298Z,86.89
2023-03-06T06:29:31.257Z,87.11
2023-03-06T06:31:58.933Z,87.06
2023-03-06T06:34:27.186Z,87.09
2023-03-06T06:36:54.844Z,86.78
2023-03-06T06:39:23.923Z,86.77
2023-03-06T06:42:09.609Z,86.50
2023-03-06T06:44:40.482Z,86.24
2023-03-06T06:47:25.089Z,86.22
2023-03-06T06:49:54.884Z,86.07
2023-03-06T06:52:23.178Z,85.83
2023-03-06T06:54:50.295Z,86.06
2023-03-06T06:57:17.903Z,85.65
2023-03-06T06:59:44.705Z,85.95
2023-03-06T07:02:14.095Z,85.90
2023-03-06T07:04:52.734Z,86.08
2023-03-06T07:07:25.404Z,85.94
2023-03-06T07:09:53.208Z,85.84
2023-03-06T07:12:20.203Z,85.44
2023-03-06T07:14:47.275Z,85.50
2023-03-06T07:17:14.422Z,85.27
2023-03-06T07:19:41.324Z,85.04
2023-03-06T07:22:08.215Z,84.70
2023-03-06T07:24:36.258Z,84.43
2023-03-06T07:27:03.125Z,84.28
2023-03-06T07:29:30.208Z,84.11
2023-03-06T07:31:57.210Z,84.04
2023-03-06T07:34:24.206Z,84.37
2023-03-06T07:36:51.535Z,83.94
2023-03-06T07:39:18.582Z,83.85
2023-03-06T07:41:45.594Z,83.80
2023-03-06T07:44:12.750Z,83.74
2023-03-06T07:46:39.705Z,83.44
2023-03-06T07:49:06.702Z,83.53
2023-03-06T07:51:33.874Z,83.32
2023-03-06T07:54:00.931Z,83.00
2023-03-06T07:56:28.050Z,82.83
2023-03-06T07:58:56.166Z,82.55
2023-03-06T08:01:24.711Z,82.79
2023-03-06T08:03:52.579Z,81.77
2023-03-06T08:06:25.765Z,81.61
2023-03-06T08:08:55.294Z,81.79
2023-03-06T08:11:24.949Z,81.47
2023-03-06T08:13:53.261Z,80.80
2023-03-06T08:16:22.427Z,80.88
2023-03-06T08:18:50.323Z,79.58
2023-03-06T08:21:21.047Z,79.17
2023-03-06T08:23:48.932Z,78.85
2023-03-06T08:26:34.770Z,79.30
2023-03-06T08:29:03.405Z,78.18
2023-03-06T08:31:37.096Z,78.26
2023-03-06T08:34:26.211Z,77.82
2023-03-06T08:36:53.807Z,76.61
2023-03-06T08:39:21.662Z,74.78
2023-03-06T08:41:48.795Z,75.44
2023-03-06T08:44:15.758Z,75.88
2023-03-06T08:46:42.764Z,75.48
2023-03-06T08:49:12.816Z,74.90
2023-03-06T08:51:40.284Z,75.22
2023-03-06T08:54:07.812Z,74.81
2023-03-06T08:56:35.242Z,75.81
2023-03-06T08:59:04.097Z,74.69
2023-03-06T09:01:34.500Z,74.85
2023-03-06T09:04:05.536Z,74.86
2023-03-06T09:06:34.785Z,74.99
2023-03-06T09:09:02.384Z,74.46
2023-03-06T09:11:29.837Z,73.67
2023-03-06T09:13:58.037Z,73.99
2023-03-06T09:16:25.772Z,73.18
2023-03-06T09:18:54.460Z,72.90
2023-03-06T09:21:23.167Z,71.66
2023-03-06T09:23:50.869Z,70.64
2023-03-06T09:26:18.965Z,68.54
2023-03-06T09:28:46.062Z,69.05
2023-03-06T09:31:16.670Z,67.80
2023-03-06T09:33:44.164Z,67.95
2023-03-06T09:36:19.667Z,67.43
2023-03-06T09:38:48.628Z,65.28
2023-03-06T09:41:37.809Z,63.67
2023-03-06T09:44:08.949Z,63.42
2023-03-06T09:46:41.623Z,62.81
2023-03-06T09:49:21.006Z,61.56
2023-03-06T09:52:22.118Z,62.04
2023-03-06T09:54:57.570Z,61.49
2023-03-06T09:57:32.301Z,61.23
2023-03-06T10:00:13.249Z,59.95
2023-03-06T10:03:09.427Z,60.68
2023-03-06T10:05:42.637Z,60.72
2023-03-06T10:08:24.401Z,59.14
2023-03-06T10:10:59.690Z,58.93
2023-03-06T10:13:43.518Z,58.35
2023-03-06T10:16:23.761Z,58.43
2023-03-06T10:18:51.532Z,58.83
2023-03-06T10:21:56.209Z,57.99
2023-03-06T10:24:41.863Z,57.88
2023-03-06T10:27:34.488Z,58.28
2023-03-06T10:30:09.834Z,57.99
2023-03-06T10:33:16.541Z,57.67
2023-03-06T10:35:48.832Z,57.24
2023-03-06T10:38:28.482Z,56.79
2023-03-06T10:41:13.715Z,56.12
2023-03-06T10:43:42.003Z,55.53
2023-03-06T10:46:14.854Z,54.10
2023-03-06T10:48:43.200Z,53.18
2023-03-06T10:51:19.826Z,52.03
2023-03-06T10:53:57.687Z,52.65
2023-03-06T10:56:27.323Z,53.00
2023-03-06T10:59:16.622Z,53.56
2023-03-06T11:01:46.859Z,52.69
2023-03-06T11:04:35.571Z,52.57
2023-03-06T11:07:08.218Z,52.47
2023-03-06T11:09:36.142Z,51.54
2023-03-06T11:12:25.486Z,50.91
2023-03-06T11:15:11.169Z,49.95
2023-03-06T11:17:48.220Z,48.18
2023-03-06T11:20:15.118Z,46.88
2023-03-06T11:22:49.013Z,48.14
2023-03-06T11:25:18.863Z,48.53
2023-03-06T11:27:55.965Z,49.01
2023-03-06T11:30:30.691Z,48.32
2023-03-06T11:33:30.690Z,46.29
2023-03-06T11:36:23.346Z,46.51
2023-03-06T11:38:52.948Z,46.91
2023-03-06T11:41:58.216Z,45.54
2023-03-06T11:44:52.028Z,45.02
2023-03-06T11:47:42.535Z,46.01
2023-03-06T11:50:23.108Z,46.73
2023-03-06T11:53:11.803Z,44.56
2023-03-06T11:55:57.421Z,44.56
2023-03-06T11:58:51.640Z,44.68
2023-03-06T12:01:41.937Z,45.91
2023-03-06T12:04:46.685Z,45.37
2023-03-06T12:07:29.720Z,45.02
2023-03-06T12:10:49.005Z,46.02
2023-03-06T12:13:33.584Z,47.77
2023-03-06T12:16:19.204Z,48.30
2023-03-06T12:19:01.325Z,47.32
2023-03-06T12:21:41.274Z,48.67
2023-03-06T12:24:19.912Z,48.51
2023-03-06T12:27:01.528Z,49.58
2023-03-06T12:29:37.661Z,49.95
2023-03-06T12:32:17.277Z,50.56
2023-03-06T12:34:59.241Z,51.83
2023-03-06T12:37:47.336Z,51.89
2023-03-06T12:40:35.939Z,52.30
2023-03-06T12:43:05.799Z,53.46
2023-03-06T12:45:44.244Z,53.35
2023-03-06T12:48:22.891Z,52.95
2023-03-06T12:50:51.118Z,53.61
2023-03-06T12:53:28.008Z,53.98
2023-03-06T12:55:57.542Z,52.99
2023-03-06T12:58:30.589Z,53.23
2023-03-06T13:01:28.851Z,52.08
2023-03-06T13:04:28.285Z,51.25
2023-03-06T13:07:04.710Z,51.59
2023-03-06T13:09:54.796Z,52.91
2023-03-06T13:12:36.482Z,53.55
2023-03-06T13:15:40.816Z,53.36
2023-03-06T13:18:23.344Z,51.90
2023-03-06T13:20:51.813Z,51.18
2023-03-06T13:23:36.578Z,51.59
2023-03-06T13:26:08.672Z,50.91
2023-03-06T13:28:46.753Z,49.49
2023-03-06T13:31:27.692Z,49.92
2023-03-06T13:34:00.155Z,49.73
2023-03-06T13:36:30.592Z,50.03
2023-03-06T13:39:12.410Z,50.11
2023-03-06T13:41:59.493Z,51.16
2023-03-06T13:44:26.291Z,51.33
2023-03-06T13:47:39.182Z,51.39
2023-03-06T13:50:29.469Z,52.41
2023-03-06T13:53:12.868Z,54.08
2023-03-06T13:55:58.006Z,58.76
2023-03-06T13:58:40.030Z,59.96
2023-03-06T14:01:39.551Z,61.55
2023-03-06T14:04:32.896Z,61.95
2023-03-06T14:07:10.249Z,62.51
2023-03-06T14:09:46.492Z,62.47
2023-03-06T14:12:49.631Z,60.83
2023-03-06T14:15:19.650Z,61.07
2023-03-06T14:18:07.626Z,60.81
2023-03-06T14:20:50.705Z,60.82
2023-03-06T14:23:29.311Z,61.32
2023-03-06T14:26:01.603Z,61.54
2023-03-06T14:28:31.217Z,61.24
2023-03-06T14:31:00.266Z,61.82
2023-03-06T14:33:32.769Z,62.47
2023-03-06T14:36:03.289Z,63.83
2023-03-06T14:38:35.610Z,65.48
2023-03-06T14:41:05.390Z,67.98
2023-03-06T14:43:33.213Z,70.08
2023-03-06T14:46:02.537Z,70.87
2023-03-06T14:48:44.678Z,71.32
2023-03-06T14:51:17.340Z,71.74
2023-03-06T14:53:48.288Z,72.43
2023-03-06T14:56:19.552Z,72.71
2023-03-06T14:58:50.898Z,73.87
2023-03-06T15:01:26.685Z,73.50
2023-03-06T15:03:58.959Z,73.46
2023-03-06T15:06:38.236Z,73.30
2023-03-06T15:09:31.021Z,74.51
2023-03-06T15:12:02.518Z,74.16
2023-03-06T15:14:37.312Z,74.25
2023-03-06T15:17:19.830Z,73.72
2023-03-06T15:19:51.937Z,73.60
2023-03-06T15:22:30.034Z,73.67
2023-03-06T15:25:19.883Z,73.67
2023-03-06T15:27:51.638Z,73.37
2023-03-06T15:30:25.067Z,73.50
2023-03-06T15:32:53.279Z,73.59
2023-03-06T15:35:26.785Z,73.66
2023-03-06T15:37:54.231Z,73.31
2023-03-06T15:40:23.781Z,73.26
2023-03-06T15:42:50.923Z,73.14
2023-03-06T15:45:20.914Z,73.22
2023-03-06T15:47:49.458Z,73.32
2023-03-06T15:50:28.256Z,73.32
2023-03-06T15:52:55.961Z,73.32
2023-03-06T15:55:28.420Z,73.11
2023-03-06T15:58:00.944Z,73.13
2023-03-06T16:00:31.306Z,73.00
2023-03-06T16:02:59.056Z,72.54
2023-03-06T16:05:27.766Z,72.59
2023-03-06T16:07:55.292Z,73.00
2023-03-06T16:10:25.068Z,73.06
2023-03-06T16:12:56.749Z,72.99
2023-03-06T16:15:31.123Z,72.69
2023-03-06T16:18:00.152Z,72.76
2023-03-06T16:20:29.210Z,72.78
2023-03-06T16:22:57.223Z,72.68
2023-03-06T16:25:28.019Z,72.90
2023-03-06T16:27:58.847Z,72.77
2023-03-06T16:30:28.802Z,72.90
2023-03-06T16:32:56.407Z,73.10
2023-03-06T16:35:24.011Z,73.16
2023-03-06T16:37:51.302Z,73.28
2023-03-06T16:40:24.504Z,73.26
2023-03-06T16:42:54.071Z,73.43
2023-03-06T16:45:24.725Z,73.12
2023-03-06T16:47:51.888Z,73.42
2023-03-06T16:50:28.765Z,73.50
2023-03-06T16:52:57.284Z,73.53
2023-03-06T16:55:26.382Z,73.86
2023-03-06T16:57:53.989Z,73.43
2023-03-06T17:00:22.792Z,74.07
2023-03-06T17:02:51.165Z,74.24
2023-03-06T17:05:19.632Z,74.22
2023-03-06T17:07:46.783Z,74.50
2023-03-06T17:10:16.671Z,74.67
2023-03-06T17:12:44.009Z,74.65
2023-03-06T17:15:11.849Z,75.12
2023-03-06T17:17:39.221Z,75.05
2023-03-06T17:20:08.489Z,75.59
2023-03-06T17:22:36.624Z,75.99
2023-03-06T17:25:07.000Z,76.66
2023-03-06T17:27:35.715Z,76.96
2023-03-06T17:30:06.103Z,76.82
2023-03-06T17:32:33.489Z,76.64
2023-03-06T17:35:00.768Z,76.37
2023-03-06T17:37:27.825Z,75.65
2023-03-06T17:39:55.395Z,75.84
2023-03-06T17:42:22.644Z,75.81
2023-03-06T17:44:50.116Z,75.61
2023-03-06T17:47:17.157Z,75.42
2023-03-06T17:49:44.167Z,75.45
2023-03-06T17:52:11.850Z,75.53
2023-03-06T17:54:39.407Z,75.54
2023-03-06T17:57:06.633Z,74.96
2023-03-06T17:59:34.808Z,74.75
2023-03-06T18:02:02.512Z,74.31
2023-03-06T18:04:30.229Z,74.34
2023-03-06T18:06:58.683Z,74.04
2023-03-06T18:09:26.164Z,74.10
2023-03-06T18:11:53.441Z,74.15
2023-03-06T18:14:20.444Z,74.15
2023-03-06T18:16:47.678Z,73.80
2023-03-06T18:19:16.179Z,73.89
2023-03-06T18:21:43.699Z,74.19
2023-03-06T18:24:11.792Z,73.74
2023-03-06T18:26:44.745Z,73.85
2023-03-06T18:29:12.272Z,73.64
2023-03-06T18:31:41.797Z,73.57
2023-03-06T18:34:14.257Z,73.34
2023-03-06T18:36:43.571Z,73.46
2023-03-06T18:39:13.897Z,73.57
2023-03-06T18:41:42.842Z,73.42
2023-03-06T18:44:18.233Z,73.89
2023-03-06T18:46:45.786Z,73.67
2023-03-06T18:49:15.006Z,73.62
2023-03-06T18:51:43.694Z,73.72
2023-03-06T18:54:13.103Z,73.75
2023-03-06T18:56:44.581Z,73.57
2023-03-06T18:59:18.794Z,73.92
2023-03-06T19:01:47.695Z,74.00
2023-03-06T19:04:17.274Z,74.16
2023-03-06T19:06:44.733Z,74.02
2023-03-06T19:09:11.714Z,74.13
2023-03-06T19:11:39.555Z,73.37
2023-03-06T19:14:07.137Z,73.48
2023-03-06T19:16:35.780Z,73.48
2023-03-06T19:19:03.370Z,73.56
2023-03-06T19:21:30.504Z,73.52
2023-03-06T19:23:58.863Z,73.73
2023-03-06T19:26:28.495Z,73.41
2023-03-06T19:28:55.932Z,73.47
2023-03-06T19:31:28.036Z,74.13
2023-03-06T19:33:57.468Z,73.95
2023-03-06T19:36:29.259Z,73.93
2023-03-06T19:38:58.890Z,74.18
2023-03-06T19:41:26.748Z,74.92
2023-03-06T19:43:56.999Z,75.18
2023-03-06T19:46:25.143Z,75.67
2023-03-06T19:49:00.369Z,75.91
2023-03-06T19:51:28.605Z,76.34
2023-03-06T19:53:57.404Z,76.91
2023-03-06T19:56:27.007Z,77.78
2023-03-06T19:58:54.534Z,78.12
2023-03-06T20:01:23.573Z,78.72
2023-03-06T20:03:53.616Z,78.88
2023-03-06T20:06:20.707Z,78.93
2023-03-06T20:08:48.255Z,80.06
2023-03-06T20:11:30.025Z,79.66
2023-03-06T20:13:59.142Z,79.45
2023-03-06T20:16:30.206Z,80.12
2023-03-06T20:18:59.136Z,79.64
2023-03-06T20:21:28.505Z,80.34
2023-03-06T20:23:58.342Z,80.67
2023-03-06T20:26:27.533Z,80.72
2023-03-06T20:28:55.377Z,80.93
2023-03-06T20:31:26.043Z,81.03
2023-03-06T20:33:55.378Z,81.71
2023-03-06T20:36:27.600Z,82.30
2023-03-06T20:38:56.246Z,82.66
2023-03-06T20:41:26.809Z,82.98
2023-03-06T20:43:54.978Z,82.86
2023-03-06T20:46:23.707Z,82.31
2023-03-06T20:48:52.895Z,82.21
2023-03-06T20:51:28.887Z,82.05
2023-03-06T20:53:56.601Z,81.89
2023-03-06T20:56:26.507Z,81.56
2023-03-06T20:58:54.015Z,81.39
2023-03-06T21:01:29.823Z,81.02
2023-03-06T21:03:58.426Z,80.72
2023-03-06T21:06:26.892Z,80.78
2023-03-06T21:08:54.739Z,80.62
2023-03-06T21:11:21.791Z,80.93
2023-03-06T21:13:49.371Z,80.70
2023-03-06T21:16:20.140Z,80.93
2023-03-06T21:18:48.040Z,81.18
2023-03-06T21:21:18.730Z,80.95
2023-03-06T21:23:47.450Z,80.94
2023-03-06T21:26:18.335Z,81.53
2023-03-06T21:28:46.041Z,81.34
2023-03-06T21:31:16.098Z,81.68
2023-03-06T21:33:44.208Z,81.93
2023-03-06T21:36:11.938Z,81.66
2023-03-06T21:38:39.058Z,81.60
2023-03-06T21:41:19.634Z,81.43
2023-03-06T21:43:47.069Z,81.55
2023-03-06T21:46:14.892Z,81.63
2023-03-06T21:48:41.772Z,81.51
2023-03-06T21:51:11.938Z,81.48
2023-03-06T21:53:42.000Z,81.71
2023-03-06T21:56:09.664Z,81.38
2023-03-06T21:58:36.889Z,81.46
2023-03-06T22:01:09.957Z,81.36
2023-03-06T22:03:36.939Z,81.84
2023-03-06T22:06:12.892Z,81.72
2023-03-06T22:08:41.719Z,81.71
2023-03-06T22:11:18.158Z,81.94
2023-03-06T22:13:46.182Z,81.84
2023-03-06T22:16:14.581Z,81.91
2023-03-06T22:18:46.143Z,81.65
2023-03-06T22:21:15.944Z,81.84
2023-03-06T22:23:43.241Z,81.92
2023-03-06T22:26:13.005Z,81.80
2023-03-06T22:28:41.463Z,81.45
2023-03-06T22:31:13.622Z,81.39
2023-03-06T22:33:41.410Z,81.30
2023-03-06T22:36:14.815Z,81.16
2023-03-06T22:38:43.841Z,81.07
2023-03-06T22:41:12.500Z,81.07
2023-03-06T22:43:40.052Z,80.91
2023-03-06T22:46:12.670Z,80.71
2023-03-06T22:48:40.297Z,80.96
2023-03-06T22:51:10.077Z,80.66
2023-03-06T22:53:38.854Z,81.03
2023-03-06T22:56:08.406Z,80.95
2023-03-06T22:58:37.601Z,80.93
2023-03-06T23:01:10.243Z,80.90
2023-03-06T23:03:39.681Z,80.84
2023-03-06T23:06:12.883Z,80.97
2023-03-06T23:08:40.592Z,80.92
2023-03-06T23:11:10.353Z,80.79
2023-03-06T23:13:38.490Z,80.75
2023-03-06T23:16:07.332Z,80.93
2023-03-06T23:18:36.104Z,80.67
2023-03-06T23:21:12.347Z,80.72
2023-03-06T23:23:40.647Z,80.59
2023-03-06T23:26:09.222Z,80.42
2023-03-06T23:28:36.125Z,80.36
2023-03-06T23:31:11.098Z,80.53
2023-03-06T23:33:39.294Z,80.64
2023-03-06T23:36:08.652Z,80.79
2023-03-06T23:38:36.191Z,80.64
2023-03-06T23:41:14.668Z,80.55
2023-03-06T23:43:42.182Z,80.76
2023-03-06T23:46:09.800Z,80.69
2023-03-06T23:48:39.124Z,80.51
2023-03-06T23:51:08.519Z,80.68
2023-03-06T23:53:36.006Z,80.64
2023-03-06T23:56:06.862Z,80.58
2023-03-06T23:58:34.457Z,80.59
